Loomis, Washington
Current Conditions -  °F | °C
As of 4:53 PM on Monday 20 Oct 2014 (Local Time) from KOMK Reporting Station
Light Rain Light Rain  
Wind Chill: 56°   Ceiling: 5000
Heat Index: 56°   Visibility: 9mi
Dew Point: 51°   Wind: 6mph
Humidity: 84%   Direction: 130°SE
Pressure: 29.76"   Gusts: NA
Location:  48.82°N, 119.64°W
Report Text: KOMK 202353Z AUTO 13005KT 9SM -RA FEW034 BKN050 OVC065 13/11 A2976 RMK AO2 RAE01B18 SLP081 P0001 60002 T01330106 10133 20117 51011
Loading
Personal Weather Stations






























Interactive Weather Map
Tropical Storm Tracking
New forecast layout! Learn more

10-Day Weather Forecast

Advertisements
Track Severe Weather on mobile